createdAt,value
2017-07-26T00:00:59.997Z,0
2017-07-26T00:02:10.335Z,0
2017-07-26T00:03:20.427Z,0
2017-07-26T00:04:30.451Z,0
2017-07-26T00:05:40.784Z,0
2017-07-26T00:06:51.147Z,0
2017-07-26T00:08:01.514Z,0
2017-07-26T00:09:11.604Z,0
2017-07-26T00:10:21.630Z,0
2017-07-26T00:11:31.664Z,0
2017-07-26T00:12:42.014Z,0
2017-07-26T00:13:52.377Z,0
2017-07-26T00:15:02.728Z,0
2017-07-26T00:16:13.062Z,0
2017-07-26T00:17:23.086Z,0
2017-07-26T00:18:33.433Z,0
2017-07-26T00:19:43.786Z,0
2017-07-26T00:20:54.186Z,0
2017-07-26T00:22:04.555Z,0
2017-07-26T00:23:14.584Z,0
2017-07-26T00:24:24.926Z,0
2017-07-26T00:25:35.269Z,0
2017-07-26T00:26:45.354Z,0
2017-07-26T00:27:55.714Z,0
2017-07-26T00:29:06.061Z,0
2017-07-26T00:30:16.419Z,0
2017-07-26T00:31:26.781Z,0
2017-07-26T00:32:36.864Z,0
2017-07-26T00:33:47.226Z,0
2017-07-26T00:34:56.944Z,0
2017-07-26T00:36:07.296Z,0
2017-07-26T00:37:17.329Z,0
2017-07-26T00:38:27.349Z,0
2017-07-26T00:39:37.384Z,0
2017-07-26T00:40:47.741Z,0
2017-07-26T00:41:58.080Z,0
2017-07-26T00:43:08.431Z,0
2017-07-26T00:44:18.463Z,0
2017-07-26T00:45:28.804Z,0
2017-07-26T00:46:39.169Z,0
2017-07-26T00:47:49.499Z,0
2017-07-26T00:48:59.840Z,0
2017-07-26T00:50:10.178Z,0
2017-07-26T00:51:20.514Z,0
2017-07-26T00:52:30.224Z,0
2017-07-26T00:53:40.563Z,0
2017-07-26T00:54:50.900Z,0
2017-07-26T00:56:01.290Z,0
2017-07-26T00:57:11.634Z,0
2017-07-26T00:58:21.974Z,0
2017-07-26T00:59:32.313Z,0
2017-07-26T01:00:42.352Z,0
2017-07-26T01:01:52.119Z,0
2017-07-26T01:03:02.461Z,0
2017-07-26T01:04:12.803Z,0
2017-07-26T01:05:23.135Z,0
2017-07-26T01:06:32.847Z,0
2017-07-26T01:07:42.873Z,0
2017-07-26T01:08:52.914Z,0
2017-07-26T01:10:03.253Z,0
2017-07-26T01:11:13.603Z,0
2017-07-26T01:12:23.945Z,0
2017-07-26T01:13:34.295Z,0
2017-07-26T01:14:44.636Z,0
2017-07-26T01:15:54.990Z,0
2017-07-26T01:17:05.334Z,0
2017-07-26T01:18:15.684Z,0
2017-07-26T01:19:25.738Z,0
2017-07-26T01:20:36.078Z,0
2017-07-26T01:21:46.424Z,0
2017-07-26T01:22:56.789Z,0
2017-07-26T01:24:07.149Z,0
2017-07-26T01:25:17.548Z,0
2017-07-26T01:26:27.887Z,0
2017-07-26T01:27:38.240Z,0
2017-07-26T01:28:48.273Z,0
2017-07-26T01:29:58.628Z,0
2017-07-26T01:31:09.022Z,0
2017-07-26T01:32:19.061Z,0
2017-07-26T01:33:29.131Z,0
2017-07-26T01:34:38.850Z,0
2017-07-26T01:35:49.197Z,0
2017-07-26T01:36:59.605Z,0
2017-07-26T01:38:09.964Z,0
2017-07-26T01:39:19.687Z,0
2017-07-26T01:40:29.398Z,0
2017-07-26T01:41:39.750Z,0
2017-07-26T01:42:50.132Z,0
2017-07-26T01:44:00.172Z,0
2017-07-26T01:45:10.514Z,0
2017-07-26T01:46:20.559Z,0
2017-07-26T01:47:30.898Z,0
2017-07-26T01:48:41.281Z,0
2017-07-26T01:49:51.626Z,0
2017-07-26T01:51:01.964Z,0
2017-07-26T01:52:12.306Z,0
2017-07-26T01:53:22.656Z,0
2017-07-26T01:54:32.724Z,0
2017-07-26T01:55:43.049Z,0
2017-07-26T01:56:53.076Z,0
2017-07-26T01:58:03.431Z,0
2017-07-26T01:59:13.466Z,0
2017-07-26T02:00:23.823Z,0
2017-07-26T02:01:34.175Z,0
2017-07-26T02:02:44.221Z,0
2017-07-26T02:03:54.254Z,0
2017-07-26T02:05:04.614Z,0
2017-07-26T02:06:14.947Z,0
2017-07-26T02:07:24.668Z,0
2017-07-26T02:08:34.696Z,0
2017-07-26T02:09:44.728Z,0
2017-07-26T02:10:55.068Z,0
2017-07-26T02:12:05.119Z,0
2017-07-26T02:13:14.846Z,0
2017-07-26T02:14:25.215Z,0
2017-07-26T02:15:35.550Z,0
2017-07-26T02:16:45.574Z,0
2017-07-26T02:17:55.969Z,0
2017-07-26T02:19:05.993Z,0
2017-07-26T02:20:16.359Z,0
2017-07-26T02:21:26.695Z,0
2017-07-26T02:22:36.721Z,0
2017-07-26T02:23:46.808Z,0
2017-07-26T02:24:57.151Z,0
2017-07-26T02:26:07.172Z,0
2017-07-26T02:27:17.525Z,0
2017-07-26T02:28:27.895Z,0
2017-07-26T02:29:38.275Z,0
2017-07-26T02:30:48.294Z,0
2017-07-26T02:31:58.637Z,0
2017-07-26T02:33:08.673Z,0
2017-07-26T02:34:19.020Z,0
2017-07-26T02:35:29.370Z,0
2017-07-26T02:36:39.086Z,0
2017-07-26T02:37:49.425Z,0
2017-07-26T02:38:59.757Z,0
2017-07-26T02:40:10.098Z,0
2017-07-26T02:41:20.510Z,0
2017-07-26T02:42:30.874Z,0
2017-07-26T02:43:41.236Z,0
2017-07-26T02:44:51.567Z,0
2017-07-26T02:46:01.595Z,0
2017-07-26T02:47:11.642Z,0
2017-07-26T02:48:21.995Z,0
2017-07-26T02:49:32.342Z,0
2017-07-26T02:50:42.699Z,0
2017-07-26T02:51:53.040Z,0
2017-07-26T02:53:03.379Z,0
2017-07-26T02:54:13.720Z,0
2017-07-26T02:55:23.743Z,0
2017-07-26T02:56:34.102Z,0
2017-07-26T02:57:44.455Z,0
2017-07-26T02:58:54.846Z,0
2017-07-26T03:00:05.186Z,0
2017-07-26T03:01:15.517Z,0
2017-07-26T03:33:08.137Z,0
2017-07-26T03:34:18.159Z,0
2017-07-26T03:35:28.175Z,0
2017-07-26T03:36:38.512Z,0
2017-07-26T03:37:48.545Z,0
2017-07-26T03:38:58.888Z,0
2017-07-26T03:40:09.237Z,0
2017-07-26T03:41:19.572Z,0
2017-07-26T03:42:29.906Z,0
2017-07-26T03:43:40.248Z,0
2017-07-26T03:44:50.014Z,0
2017-07-26T03:46:00.041Z,0
2017-07-26T03:47:10.392Z,0
2017-07-26T03:48:20.728Z,0
2017-07-26T03:49:31.077Z,0
2017-07-26T03:50:41.463Z,0
2017-07-26T03:51:51.806Z,0
2017-07-26T03:53:01.838Z,0
2017-07-26T03:54:11.864Z,0
2017-07-26T03:55:22.206Z,5
2017-07-26T03:56:32.541Z,5
2017-07-26T03:57:42.909Z,5
2017-07-26T03:58:52.953Z,5
2017-07-26T04:00:02.679Z,5
2017-07-26T04:01:13.020Z,5
2017-07-26T04:02:23.354Z,5
2017-07-26T04:03:33.683Z,5
2017-07-26T04:04:44.027Z,10
2017-07-26T04:05:54.066Z,10
2017-07-26T04:07:04.094Z,10
2017-07-26T04:08:14.482Z,10
2017-07-26T04:09:24.508Z,10
2017-07-26T04:10:34.845Z,10
2017-07-26T04:11:45.199Z,10
2017-07-26T04:12:55.543Z,10
2017-07-26T04:14:05.620Z,10
2017-07-26T04:15:15.660Z,10
2017-07-26T04:16:26.013Z,10
2017-07-26T04:17:36.067Z,10
2017-07-26T04:18:46.105Z,10
2017-07-26T04:19:56.466Z,15
2017-07-26T04:21:06.826Z,15
2017-07-26T04:22:17.182Z,15
2017-07-26T04:23:27.524Z,15
2017-07-26T04:24:37.886Z,15
2017-07-26T04:25:48.294Z,20
2017-07-26T04:26:58.002Z,20
2017-07-26T04:28:08.357Z,20
2017-07-26T04:29:18.714Z,20
2017-07-26T04:30:29.057Z,20
2017-07-26T04:31:39.487Z,25
2017-07-26T04:32:49.832Z,25
2017-07-26T04:33:59.872Z,25
2017-07-26T04:35:10.224Z,30
2017-07-26T04:36:20.554Z,30
2017-07-26T04:37:30.950Z,35
2017-07-26T04:38:40.962Z,35
2017-07-26T04:39:50.995Z,35
2017-07-26T04:41:01.350Z,35
2017-07-26T04:42:11.698Z,35
2017-07-26T04:43:21.736Z,35
2017-07-26T04:44:32.081Z,35
2017-07-26T04:45:42.109Z,40
2017-07-26T04:46:51.824Z,45
2017-07-26T04:48:02.189Z,50
2017-07-26T04:49:12.535Z,55
2017-07-26T04:50:22.910Z,55
2017-07-26T04:51:32.942Z,60
2017-07-26T04:52:42.979Z,60
2017-07-26T04:53:53.354Z,60
2017-07-26T04:55:03.464Z,60
2017-07-26T04:56:13.813Z,60
2017-07-26T04:57:24.175Z,55
2017-07-26T04:58:34.503Z,55
2017-07-26T04:59:44.838Z,60
2017-07-26T05:00:55.179Z,65
2017-07-26T05:02:05.518Z,60
2017-07-26T05:03:15.866Z,55
2017-07-26T05:04:26.215Z,55
2017-07-26T05:05:36.554Z,50
2017-07-26T05:06:46.898Z,45
2017-07-26T05:07:56.936Z,35
2017-07-26T05:09:06.987Z,35
2017-07-26T05:10:17.073Z,35
2017-07-26T05:11:27.426Z,35
2017-07-26T05:12:37.519Z,35
2017-07-26T05:13:47.858Z,35
2017-07-26T05:14:57.890Z,40
2017-07-26T05:16:07.941Z,40
2017-07-26T05:17:18.289Z,45
2017-07-26T05:18:28.372Z,45
2017-07-26T05:19:38.390Z,45
2017-07-26T05:20:48.750Z,45
2017-07-26T05:21:59.115Z,50
2017-07-26T05:23:09.509Z,50
2017-07-26T05:24:19.891Z,50
2017-07-26T05:25:30.244Z,55
2017-07-26T05:26:40.584Z,60
2017-07-26T05:27:50.925Z,65
2017-07-26T05:29:01.266Z,70
2017-07-26T05:30:11.359Z,75
2017-07-26T05:31:21.377Z,75
2017-07-26T05:32:31.725Z,80
2017-07-26T05:33:41.783Z,85
2017-07-26T05:34:51.816Z,85
2017-07-26T05:36:02.159Z,85
2017-07-26T05:37:11.885Z,85
2017-07-26T05:38:22.232Z,85
2017-07-26T05:39:32.264Z,80
2017-07-26T05:40:42.631Z,75
2017-07-26T05:41:53.022Z,70
2017-07-26T05:43:03.064Z,70
2017-07-26T05:44:13.411Z,70
2017-07-26T05:45:23.748Z,70
2017-07-26T05:46:33.790Z,75
2017-07-26T05:47:43.836Z,75
2017-07-26T05:48:54.162Z,75
2017-07-26T05:50:04.192Z,70
2017-07-26T05:51:14.547Z,70
2017-07-26T05:52:24.884Z,70
2017-07-26T05:53:35.233Z,65
2017-07-26T05:54:45.583Z,55
2017-07-26T05:55:55.912Z,50
2017-07-26T05:57:06.251Z,50
2017-07-26T05:58:16.588Z,55
2017-07-26T05:59:26.915Z,65
2017-07-26T06:00:36.943Z,65
2017-07-26T06:01:46.963Z,70
2017-07-26T06:02:57.318Z,70
2017-07-26T06:04:07.353Z,75
2017-07-26T06:05:17.743Z,80
2017-07-26T06:06:28.089Z,80
2017-07-26T06:07:38.441Z,80
2017-07-26T06:08:48.790Z,90
2017-07-26T06:09:58.834Z,100
2017-07-26T06:11:09.192Z,120
2017-07-26T06:12:19.230Z,130
2017-07-26T06:13:29.579Z,135
2017-07-26T06:14:39.932Z,145
2017-07-26T06:15:50.273Z,140
2017-07-26T06:17:00.660Z,140
2017-07-26T06:18:11.030Z,130
2017-07-26T06:19:21.373Z,125
2017-07-26T06:20:31.737Z,125
2017-07-26T06:21:42.102Z,125
2017-07-26T06:22:52.460Z,130
2017-07-26T06:24:02.813Z,130
2017-07-26T06:25:12.533Z,130
2017-07-26T06:26:22.867Z,130
2017-07-26T06:27:33.221Z,125
2017-07-26T06:28:43.571Z,125
2017-07-26T06:29:53.911Z,120
2017-07-26T06:31:04.257Z,120
2017-07-26T06:32:14.298Z,120
2017-07-26T06:33:24.647Z,120
2017-07-26T06:34:34.734Z,120
2017-07-26T06:35:45.079Z,120
2017-07-26T06:36:54.806Z,115
2017-07-26T06:38:04.847Z,115
2017-07-26T06:39:15.212Z,110
2017-07-26T06:40:25.241Z,105
2017-07-26T06:41:35.597Z,105
2017-07-26T06:42:45.638Z,100
2017-07-26T06:43:55.656Z,95
2017-07-26T06:45:06.007Z,95
2017-07-26T06:46:16.094Z,100
2017-07-26T06:47:26.448Z,100
2017-07-26T06:48:36.779Z,100
2017-07-26T06:49:47.133Z,105
2017-07-26T06:50:57.491Z,105
2017-07-26T06:52:07.898Z,105
2017-07-26T06:53:18.255Z,100
2017-07-26T06:54:28.288Z,95
2017-07-26T06:55:38.335Z,85
2017-07-26T06:56:48.375Z,75
2017-07-26T06:57:58.773Z,75
2017-07-26T06:59:08.817Z,70
2017-07-26T07:00:19.166Z,65
2017-07-26T07:01:29.531Z,60
2017-07-26T07:02:39.869Z,55
2017-07-26T07:03:49.942Z,55
2017-07-26T07:05:00.303Z,55
2017-07-26T07:06:10.655Z,55
2017-07-26T07:07:20.372Z,60
2017-07-26T07:08:30.727Z,60
2017-07-26T07:09:41.126Z,65
2017-07-26T07:10:51.162Z,65
2017-07-26T07:12:01.537Z,65
2017-07-26T07:13:11.894Z,70
2017-07-26T07:14:22.242Z,70
2017-07-26T07:15:32.709Z,70
2017-07-26T07:16:43.069Z,75
2017-07-26T07:17:53.416Z,75
2017-07-26T07:19:03.439Z,80
2017-07-26T07:20:13.781Z,80
2017-07-26T07:21:24.180Z,80
2017-07-26T07:22:34.544Z,80
2017-07-26T07:23:44.889Z,85
2017-07-26T07:24:54.926Z,85
2017-07-26T07:26:05.270Z,85
2017-07-26T07:27:15.011Z,90
2017-07-26T07:28:25.360Z,90
2017-07-26T07:29:35.705Z,90
2017-07-26T07:30:46.047Z,90
2017-07-26T07:31:56.404Z,95
2017-07-26T07:33:06.479Z,95
2017-07-26T07:34:16.824Z,100
2017-07-26T07:35:27.166Z,100
2017-07-26T07:36:37.205Z,100
2017-07-26T07:37:47.554Z,100
2017-07-26T07:38:57.975Z,100
2017-07-26T07:40:08.001Z,100
2017-07-26T07:41:18.336Z,100
2017-07-26T07:42:28.353Z,105
2017-07-26T07:43:38.393Z,110
2017-07-26T07:44:48.479Z,110
2017-07-26T07:45:58.828Z,110
2017-07-26T07:47:08.865Z,110
2017-07-26T07:48:19.220Z,110
2017-07-26T07:49:29.555Z,110
2017-07-26T07:50:39.655Z,110
2017-07-26T07:51:49.989Z,115
2017-07-26T07:53:00.017Z,115
2017-07-26T07:54:10.359Z,115
2017-07-26T07:55:20.700Z,115
2017-07-26T07:56:31.120Z,120
2017-07-26T07:57:41.458Z,120
2017-07-26T07:58:51.817Z,120
2017-07-26T08:00:02.156Z,120
2017-07-26T08:01:12.499Z,120
2017-07-26T08:02:22.611Z,125
2017-07-26T08:03:32.661Z,130
2017-07-26T08:04:42.991Z,130
2017-07-26T08:05:53.355Z,130
2017-07-26T08:07:03.707Z,125
2017-07-26T08:08:14.270Z,130
2017-07-26T08:09:24.619Z,135
2017-07-26T08:10:34.968Z,140
2017-07-26T08:11:45.344Z,140
2017-07-26T08:12:55.681Z,140
2017-07-26T08:14:05.408Z,140
2017-07-26T08:15:15.760Z,140
2017-07-26T08:16:25.795Z,145
2017-07-26T08:17:36.138Z,145
2017-07-26T08:18:46.489Z,150
2017-07-26T08:19:56.560Z,160
2017-07-26T08:21:06.585Z,160
2017-07-26T08:22:16.640Z,160
2017-07-26T08:23:26.982Z,160
2017-07-26T08:24:37.017Z,150
2017-07-26T08:25:47.413Z,140
2017-07-26T08:26:57.773Z,130
2017-07-26T08:28:08.128Z,125
2017-07-26T08:29:18.495Z,130
2017-07-26T08:30:28.522Z,135
2017-07-26T08:31:38.924Z,140
2017-07-26T08:32:49.267Z,145
2017-07-26T08:33:59.609Z,150
2017-07-26T08:35:09.647Z,155
2017-07-26T08:36:20.026Z,165
2017-07-26T08:37:29.752Z,175
2017-07-26T08:38:40.092Z,180
2017-07-26T08:39:50.118Z,180
2017-07-26T08:41:00.150Z,185
2017-07-26T08:42:10.424Z,190
2017-07-26T08:43:19.847Z,195
2017-07-26T08:44:30.201Z,190
2017-07-26T08:45:40.553Z,185
2017-07-26T08:46:50.597Z,180
2017-07-26T08:48:00.318Z,170
2017-07-26T08:49:10.699Z,165
2017-07-26T08:50:21.068Z,155
2017-07-26T08:51:31.424Z,150
2017-07-26T08:52:41.499Z,145
2017-07-26T08:53:51.869Z,145
2017-07-26T08:55:02.295Z,140
2017-07-26T08:56:12.336Z,145
2017-07-26T08:57:22.691Z,140
2017-07-26T08:58:33.053Z,145
2017-07-26T08:59:43.418Z,150
2017-07-26T09:00:53.499Z,150
2017-07-26T09:02:03.852Z,140
2017-07-26T09:03:14.203Z,140
2017-07-26T09:04:24.566Z,140
2017-07-26T09:05:34.938Z,145
2017-07-26T09:06:45.373Z,155
2017-07-26T09:07:55.427Z,155
2017-07-26T09:09:05.773Z,150
2017-07-26T09:10:16.116Z,140
2017-07-26T09:11:26.485Z,140
2017-07-26T09:12:36.832Z,135
2017-07-26T09:13:47.174Z,130
2017-07-26T09:14:57.543Z,125
2017-07-26T09:16:07.906Z,120
2017-07-26T09:17:18.268Z,115
2017-07-26T09:18:28.709Z,105
2017-07-26T09:19:39.063Z,100
2017-07-26T09:20:48.784Z,95
2017-07-26T09:21:59.124Z,85
2017-07-26T09:23:09.162Z,80
2017-07-26T09:24:19.553Z,70
2017-07-26T09:25:29.900Z,70
2017-07-26T09:26:40.256Z,75
2017-07-26T09:27:50.624Z,80
2017-07-26T09:29:00.662Z,75
2017-07-26T09:30:10.754Z,80
2017-07-26T09:31:21.098Z,100
2017-07-26T09:32:31.136Z,110
2017-07-26T09:33:41.175Z,120
2017-07-26T09:34:51.535Z,110
2017-07-26T09:36:01.886Z,95
2017-07-26T09:37:12.234Z,85
2017-07-26T09:38:22.586Z,85
2017-07-26T09:39:32.942Z,90
2017-07-26T09:40:42.989Z,90
2017-07-26T09:41:53.337Z,90
2017-07-26T09:43:03.677Z,90
2017-07-26T09:44:13.698Z,90
2017-07-26T09:45:23.729Z,90
2017-07-26T09:46:33.757Z,90
2017-07-26T09:47:44.119Z,90
2017-07-26T09:48:54.467Z,90
2017-07-26T09:50:04.815Z,95
2017-07-26T09:51:15.179Z,95
2017-07-26T09:52:25.223Z,100
2017-07-26T09:53:35.586Z,100
2017-07-26T09:54:46.005Z,100
2017-07-26T09:55:56.387Z,105
2017-07-26T09:57:06.756Z,110
2017-07-26T09:58:16.807Z,115
2017-07-26T09:59:27.169Z,125
2017-07-26T10:00:37.614Z,130
2017-07-26T10:01:47.331Z,135
2017-07-26T10:02:57.071Z,140
2017-07-26T10:04:07.448Z,145
2017-07-26T10:05:17.820Z,145
2017-07-26T10:06:27.923Z,135
2017-07-26T10:07:37.967Z,140
2017-07-26T10:08:48.321Z,135
2017-07-26T10:09:58.370Z,135
2017-07-26T10:11:08.736Z,125
2017-07-26T10:12:18.788Z,130
2017-07-26T10:13:28.832Z,130
2017-07-26T10:14:39.195Z,145
2017-07-26T10:15:49.547Z,155
2017-07-26T10:16:59.925Z,150
2017-07-26T10:18:09.718Z,150
2017-07-26T10:19:20.092Z,145
2017-07-26T10:20:30.449Z,150
2017-07-26T10:21:40.166Z,155
2017-07-26T10:22:50.500Z,170
2017-07-26T10:24:00.904Z,190
2017-07-26T10:25:11.275Z,200
2017-07-26T10:26:21.639Z,200
2017-07-26T10:27:31.686Z,195
2017-07-26T10:28:42.064Z,185
2017-07-26T10:29:52.493Z,175
2017-07-26T10:31:02.868Z,160
2017-07-26T10:32:13.234Z,160
2017-07-26T10:33:23.615Z,170
2017-07-26T10:34:33.987Z,185
2017-07-26T10:35:44.067Z,205
2017-07-26T10:36:54.438Z,230
2017-07-26T10:38:04.793Z,265
2017-07-26T10:39:15.152Z,285
2017-07-26T10:40:25.529Z,315
2017-07-26T10:41:35.932Z,320
2017-07-26T10:42:45.978Z,290
2017-07-26T10:43:56.349Z,300
2017-07-26T10:45:06.752Z,300
2017-07-26T10:46:16.827Z,255
2017-07-26T10:47:26.869Z,260
2017-07-26T10:48:37.222Z,265
2017-07-26T10:49:47.588Z,295
2017-07-26T10:50:57.615Z,270
2017-07-26T10:52:07.978Z,250
2017-07-26T10:53:18.125Z,255
2017-07-26T10:54:27.855Z,255
2017-07-26T10:55:38.194Z,250
2017-07-26T10:56:48.530Z,250
2017-07-26T10:57:58.582Z,205
2017-07-26T10:59:08.974Z,235
2017-07-26T11:00:19.334Z,230
2017-07-26T11:01:29.707Z,225
2017-07-26T11:02:39.754Z,225
2017-07-26T11:03:50.094Z,220
2017-07-26T11:05:00.186Z,225
2017-07-26T11:06:10.232Z,225
2017-07-26T11:07:20.637Z,225
2017-07-26T11:08:30.989Z,230
2017-07-26T11:09:40.711Z,245
2017-07-26T11:10:51.122Z,255
2017-07-26T11:12:01.195Z,245
2017-07-26T11:13:10.938Z,300
2017-07-26T11:14:21.310Z,280
2017-07-26T11:15:31.675Z,285
2017-07-26T11:16:41.730Z,325
2017-07-26T11:17:52.083Z,220
2017-07-26T11:19:02.436Z,245
2017-07-26T11:20:12.160Z,250
2017-07-26T11:21:22.515Z,260
2017-07-26T11:22:32.922Z,395
2017-07-26T11:23:43.276Z,280
2017-07-26T11:24:53.636Z,310
2017-07-26T11:26:03.663Z,400
2017-07-26T11:27:14.028Z,325
2017-07-26T11:28:24.417Z,325
2017-07-26T11:29:34.780Z,355
2017-07-26T11:30:45.147Z,315
2017-07-26T11:31:55.496Z,420
2017-07-26T11:33:05.550Z,300
2017-07-26T11:34:15.959Z,295
2017-07-26T11:35:25.987Z,325
2017-07-26T11:36:36.020Z,365
2017-07-26T11:37:46.382Z,365
2017-07-26T11:38:56.412Z,395
2017-07-26T11:40:06.911Z,415
2017-07-26T11:41:17.280Z,330
2017-07-26T11:42:27.319Z,330
2017-07-26T11:43:37.355Z,330
2017-07-26T11:44:47.716Z,325
2017-07-26T11:45:58.087Z,275
2017-07-26T11:47:08.455Z,240
2017-07-26T11:48:18.498Z,210
2017-07-26T11:49:28.540Z,190
2017-07-26T11:50:38.902Z,200
2017-07-26T11:51:49.290Z,230
2017-07-26T11:52:59.015Z,200
2017-07-26T11:54:09.374Z,175
2017-07-26T11:55:19.715Z,160
2017-07-26T11:56:29.765Z,160
2017-07-26T11:57:40.161Z,160
2017-07-26T11:58:50.535Z,145
2017-07-26T12:00:00.571Z,135
2017-07-26T12:01:10.613Z,140
2017-07-26T12:02:20.972Z,145
2017-07-26T12:03:30.751Z,145
2017-07-26T12:04:41.103Z,140
2017-07-26T12:05:51.453Z,135
2017-07-26T12:07:01.796Z,130
2017-07-26T12:08:12.159Z,120
2017-07-26T12:09:22.516Z,110
2017-07-26T12:10:32.862Z,100
2017-07-26T12:11:42.909Z,95
2017-07-26T12:12:52.958Z,90
2017-07-26T12:14:03.307Z,85
2017-07-26T12:15:13.716Z,85
2017-07-26T12:16:24.052Z,90
2017-07-26T12:17:34.433Z,95
2017-07-26T12:18:44.471Z,100
2017-07-26T12:19:54.834Z,110
2017-07-26T12:21:05.178Z,120
2017-07-26T12:22:15.225Z,130
2017-07-26T12:23:25.566Z,140
2017-07-26T12:24:35.906Z,145
2017-07-26T12:25:46.244Z,150
2017-07-26T12:26:56.634Z,165
2017-07-26T12:28:07.004Z,180
2017-07-26T12:29:17.346Z,200
2017-07-26T12:30:27.715Z,215
2017-07-26T12:31:38.054Z,215
2017-07-26T12:32:48.449Z,215
2017-07-26T12:33:58.778Z,215
2017-07-26T12:35:09.130Z,200
2017-07-26T12:36:19.164Z,190
2017-07-26T12:37:29.499Z,185
2017-07-26T12:38:39.898Z,185
2017-07-26T12:39:50.259Z,185
2017-07-26T12:41:00.606Z,190
2017-07-26T12:42:10.963Z,200
2017-07-26T12:43:21.313Z,210
2017-07-26T12:44:31.699Z,220
2017-07-26T12:45:42.047Z,230
2017-07-26T12:46:52.393Z,235
2017-07-26T12:48:02.747Z,245
2017-07-26T12:49:13.099Z,250
2017-07-26T12:50:23.447Z,260
2017-07-26T12:51:33.788Z,250
2017-07-26T12:52:44.136Z,240
2017-07-26T12:53:54.497Z,240
2017-07-26T12:55:04.848Z,225
2017-07-26T12:56:15.248Z,220
2017-07-26T12:57:25.624Z,215
2017-07-26T12:58:35.661Z,210
2017-07-26T12:59:46.029Z,210
2017-07-26T13:00:56.369Z,210
2017-07-26T13:02:06.742Z,215
2017-07-26T13:03:16.764Z,225
2017-07-26T13:04:27.127Z,225
2017-07-26T13:05:37.159Z,225
2017-07-26T13:06:47.501Z,225
2017-07-26T13:07:57.903Z,225
2017-07-26T13:09:07.936Z,245
2017-07-26T13:10:18.297Z,260
2017-07-26T13:11:28.669Z,260
2017-07-26T13:12:39.035Z,290
2017-07-26T13:13:49.410Z,290
2017-07-26T13:14:59.773Z,285
2017-07-26T13:16:10.115Z,280
2017-07-26T13:17:20.145Z,290
2017-07-26T13:18:30.200Z,270
2017-07-26T13:19:40.606Z,285
2017-07-26T13:20:50.950Z,290
2017-07-26T13:22:01.312Z,305
2017-07-26T13:23:11.686Z,310
2017-07-26T13:24:21.732Z,260
2017-07-26T13:25:32.154Z,350
2017-07-26T13:26:42.502Z,345
2017-07-26T13:27:52.857Z,320
2017-07-26T13:29:03.226Z,255
2017-07-26T13:30:13.261Z,235
2017-07-26T13:31:23.361Z,225
2017-07-26T13:32:33.728Z,220
2017-07-26T13:33:44.083Z,205
2017-07-26T13:34:54.434Z,195
2017-07-26T13:36:04.794Z,190
2017-07-26T13:37:14.517Z,180
2017-07-26T13:38:24.870Z,175
2017-07-26T13:39:34.916Z,175
2017-07-26T13:40:45.282Z,175
2017-07-26T13:41:55.324Z,175
2017-07-26T13:43:05.372Z,175
2017-07-26T13:44:15.731Z,175
2017-07-26T13:45:26.078Z,180
2017-07-26T13:46:36.129Z,180
2017-07-26T13:47:46.509Z,185
2017-07-26T13:48:56.610Z,185
2017-07-26T13:50:06.655Z,185
2017-07-26T13:51:17.009Z,190
2017-07-26T13:52:27.442Z,195
2017-07-26T13:53:41.463Z,195
2017-07-26T13:54:57.333Z,200
2017-07-26T13:56:08.148Z,200
2017-07-26T13:57:18.207Z,205
2017-07-26T13:58:28.562Z,200
2017-07-26T13:59:38.946Z,195
2017-07-26T14:00:49.031Z,190
2017-07-26T14:01:59.432Z,185
2017-07-26T14:03:09.486Z,180
2017-07-26T14:04:19.876Z,175
2017-07-26T14:05:30.236Z,170
2017-07-26T14:06:40.359Z,165
2017-07-26T14:07:50.962Z,165
2017-07-26T14:09:01.988Z,170
2017-07-26T14:10:12.039Z,175
2017-07-26T14:11:22.394Z,180
2017-07-26T14:12:32.553Z,185
2017-07-26T14:13:42.628Z,190
2017-07-26T14:14:52.696Z,195
2017-07-26T14:16:02.808Z,200
2017-07-26T14:17:13.189Z,200
2017-07-26T14:18:23.821Z,205
2017-07-26T14:19:34.212Z,205
2017-07-26T14:20:44.588Z,205
2017-07-26T14:21:54.665Z,205
2017-07-26T14:23:05.052Z,205
2017-07-26T14:24:15.464Z,210
2017-07-26T14:25:25.865Z,215
2017-07-26T14:26:36.299Z,220
2017-07-26T14:27:46.667Z,215
2017-07-26T14:28:57.068Z,215
2017-07-26T14:30:07.464Z,215
2017-07-26T14:31:17.528Z,215
2017-07-26T14:32:27.326Z,220
2017-07-26T14:33:37.703Z,220
2017-07-26T14:34:48.069Z,220
2017-07-26T14:35:58.513Z,225
2017-07-26T14:37:08.867Z,230
2017-07-26T14:38:19.245Z,235
2017-07-26T14:39:29.608Z,225
2017-07-26T14:40:39.971Z,235
2017-07-26T14:41:50.352Z,235
2017-07-26T14:43:00.727Z,255
2017-07-26T14:44:10.772Z,265
2017-07-26T14:45:21.144Z,260
2017-07-26T14:46:31.198Z,260
2017-07-26T14:47:41.345Z,245
2017-07-26T14:48:51.709Z,250
2017-07-26T14:50:02.012Z,240
2017-07-26T14:51:12.387Z,235
2017-07-26T14:52:22.747Z,230
2017-07-26T14:53:37.717Z,230
2017-07-26T14:54:55.210Z,225
2017-07-26T14:56:10.437Z,220
2017-07-26T14:57:20.830Z,220
2017-07-26T14:58:31.196Z,245
2017-07-26T14:59:41.545Z,225
2017-07-26T15:00:51.608Z,220
2017-07-26T15:02:01.979Z,220
2017-07-26T15:03:12.362Z,210
2017-07-26T15:04:22.770Z,230
2017-07-26T15:05:32.823Z,245
2017-07-26T15:06:43.181Z,230
2017-07-26T15:07:53.549Z,230
2017-07-26T15:09:03.908Z,235
2017-07-26T15:10:14.310Z,230
2017-07-26T15:11:24.357Z,215
2017-07-26T15:12:34.736Z,185
2017-07-26T15:13:45.098Z,190
2017-07-26T15:14:55.453Z,195
2017-07-26T15:16:05.874Z,180
2017-07-26T15:17:15.933Z,175
2017-07-26T15:18:26.325Z,170
2017-07-26T15:19:36.690Z,170
2017-07-26T15:20:47.049Z,165
2017-07-26T15:21:57.404Z,165
2017-07-26T15:23:07.824Z,165
2017-07-26T15:24:17.887Z,165
2017-07-26T15:25:27.946Z,170
2017-07-26T15:26:38.305Z,185
2017-07-26T15:27:48.714Z,165
2017-07-26T15:28:58.762Z,190
2017-07-26T15:30:08.173Z,200
2017-07-26T15:31:18.219Z,190
2017-07-26T15:32:28.584Z,205
2017-07-26T15:33:39.002Z,210
2017-07-26T15:34:49.061Z,200
2017-07-26T15:35:59.443Z,190
2017-07-26T15:37:09.504Z,200
2017-07-26T15:38:19.545Z,180
2017-07-26T15:39:29.997Z,190
2017-07-26T15:40:40.369Z,155
2017-07-26T15:41:50.759Z,145
2017-07-26T15:43:00.848Z,135
2017-07-26T15:44:11.203Z,135
2017-07-26T15:45:21.657Z,125
2017-07-26T15:46:32.032Z,125
2017-07-26T15:47:42.374Z,125
2017-07-26T15:48:52.721Z,125
2017-07-26T15:50:03.118Z,120
2017-07-26T15:51:13.212Z,125
2017-07-26T15:52:23.568Z,125
2017-07-26T15:53:33.938Z,125
2017-07-26T15:54:44.319Z,125
2017-07-26T15:55:54.373Z,125
2017-07-26T15:57:04.780Z,125
2017-07-26T15:58:14.540Z,125
2017-07-26T15:59:24.911Z,125
2017-07-26T16:00:34.951Z,125
2017-07-26T16:01:45.325Z,125
2017-07-26T16:02:55.368Z,130
2017-07-26T16:04:05.747Z,130
2017-07-26T16:05:15.808Z,130
2017-07-26T16:06:26.197Z,135
2017-07-26T16:07:36.253Z,140
2017-07-26T16:08:46.697Z,140
2017-07-26T16:09:57.059Z,145
2017-07-26T16:11:07.102Z,145
2017-07-26T16:12:17.451Z,140
2017-07-26T16:13:27.495Z,135
2017-07-26T16:14:37.854Z,135
2017-07-26T16:15:47.373Z,130
2017-07-26T16:16:57.779Z,130
2017-07-26T16:18:07.491Z,130
2017-07-26T16:19:17.847Z,130
2017-07-26T16:20:28.259Z,130
2017-07-26T16:21:38.293Z,130
2017-07-26T16:22:48.340Z,130
2017-07-26T16:23:58.708Z,125
2017-07-26T16:25:08.761Z,125
2017-07-26T16:26:19.173Z,125
2017-07-26T16:27:29.532Z,125
2017-07-26T16:28:39.939Z,125
2017-07-26T16:29:50.302Z,125
2017-07-26T16:31:00.642Z,125
2017-07-26T16:32:11.068Z,120
2017-07-26T16:33:21.413Z,120
2017-07-26T16:34:31.495Z,120
2017-07-26T16:35:41.553Z,120
2017-07-26T16:36:51.923Z,120
2017-07-26T16:38:02.370Z,120
2017-07-26T16:39:12.735Z,120
2017-07-26T16:40:23.129Z,120
2017-07-26T16:41:33.503Z,120
2017-07-26T16:42:43.883Z,120
2017-07-26T16:43:54.302Z,120
2017-07-26T16:45:04.647Z,120
2017-07-26T16:46:15.006Z,115
2017-07-26T16:47:25.404Z,115
2017-07-26T16:48:35.782Z,115
2017-07-26T16:49:46.208Z,115
2017-07-26T16:50:56.263Z,110
2017-07-26T16:52:06.641Z,105
2017-07-26T16:53:17.016Z,105
2017-07-26T16:54:27.389Z,100
2017-07-26T16:55:37.795Z,100
2017-07-26T16:56:48.155Z,95
2017-07-26T16:57:58.519Z,95
2017-07-26T16:59:08.573Z,95
2017-07-26T17:00:18.930Z,90